createdAt,value
2019-05-11T00:00:20.995Z,58.40
2019-05-11T00:02:52.314Z,58.50
2019-05-11T00:05:23.199Z,58.50
2019-05-11T00:07:54.082Z,58.70
2019-05-11T00:10:25.067Z,58.90
2019-05-11T00:12:56.091Z,59.00
2019-05-11T00:15:27.058Z,59.10
2019-05-11T00:17:58.203Z,59.00
2019-05-11T00:20:29.347Z,59.00
2019-05-11T00:23:00.795Z,59.50
2019-05-11T00:25:32.248Z,58.90
2019-05-11T00:28:03.750Z,58.80
2019-05-11T00:30:35.439Z,59.00
2019-05-11T00:33:07.196Z,59.20
2019-05-11T00:35:38.171Z,59.30
2019-05-11T00:38:09.239Z,59.30
2019-05-11T00:40:40.395Z,59.20
2019-05-11T00:43:11.819Z,59.30
2019-05-11T00:45:42.639Z,59.60
2019-05-11T00:48:13.807Z,58.90
2019-05-11T00:50:44.706Z,59.20
2019-05-11T00:53:15.576Z,59.60
2019-05-11T00:55:46.538Z,59.70
2019-05-11T00:58:17.750Z,59.80
2019-05-11T01:00:48.826Z,59.80
2019-05-11T01:03:19.895Z,59.90
2019-05-11T01:05:51.130Z,60.10
2019-05-11T01:08:22.631Z,60.20
2019-05-11T01:10:53.787Z,60.20
2019-05-11T01:13:25.072Z,60.20
2019-05-11T01:15:56.095Z,60.10
2019-05-11T01:18:27.272Z,59.90
2019-05-11T01:20:58.062Z,59.80
2019-05-11T01:23:29.190Z,59.70
2019-05-11T01:26:00.391Z,59.60
2019-05-11T01:28:31.777Z,60.20
2019-05-11T01:31:03.190Z,59.80
2019-05-11T01:33:34.382Z,59.90
2019-05-11T01:36:05.747Z,60.50
2019-05-11T01:38:37.054Z,61.10
2019-05-11T01:41:08.226Z,61.40
2019-05-11T01:43:39.352Z,61.50
2019-05-11T01:46:10.235Z,61.10
2019-05-11T01:48:40.999Z,60.90
2019-05-11T01:51:12.087Z,60.30
2019-05-11T01:53:43.527Z,60.00
2019-05-11T01:56:14.587Z,59.80
2019-05-11T01:58:45.530Z,59.70
2019-05-11T02:01:16.511Z,59.60
2019-05-11T02:03:47.746Z,59.70
2019-05-11T02:06:19.230Z,59.80
2019-05-11T02:08:50.427Z,59.90
2019-05-11T02:11:21.474Z,60.00
2019-05-11T02:13:52.694Z,60.10
2019-05-11T02:16:23.858Z,60.00
2019-05-11T02:18:54.982Z,60.00
2019-05-11T02:21:25.902Z,59.90
2019-05-11T02:23:57.002Z,59.90
2019-05-11T02:26:27.908Z,59.90
2019-05-11T02:28:58.955Z,59.90
2019-05-11T02:31:30.364Z,60.00
2019-05-11T02:34:01.320Z,60.00
2019-05-11T02:36:32.131Z,60.20
2019-05-11T02:39:03.523Z,60.20
2019-05-11T02:41:36.910Z,60.40
2019-05-11T02:44:07.254Z,60.70
2019-05-11T02:46:38.187Z,60.40
2019-05-11T02:49:09.122Z,60.30
2019-05-11T02:51:40.570Z,60.40
2019-05-11T02:54:12.269Z,60.20
2019-05-11T02:56:43.375Z,60.20
2019-05-11T02:59:14.547Z,60.20
2019-05-11T03:01:45.767Z,60.20
2019-05-11T03:04:16.607Z,60.20
2019-05-11T03:06:47.728Z,60.30
2019-05-11T03:09:18.624Z,60.40
2019-05-11T03:11:55.678Z,60.60
2019-05-11T03:14:22.017Z,60.80
2019-05-11T03:17:10.424Z,61.10
2019-05-11T03:19:41.327Z,61.40
2019-05-11T03:22:12.655Z,61.70
2019-05-11T03:24:43.770Z,61.80
2019-05-11T03:27:14.923Z,61.80
2019-05-11T03:29:46.348Z,61.50
2019-05-11T03:32:17.292Z,61.10
2019-05-11T03:34:48.315Z,61.20
2019-05-11T03:37:20.002Z,61.20
2019-05-11T03:39:51.105Z,61.40
2019-05-11T03:42:22.415Z,61.60
2019-05-11T03:44:54.259Z,62.00
2019-05-11T03:47:25.387Z,61.80
2019-05-11T03:49:56.279Z,61.90
2019-05-11T03:52:27.248Z,62.00
2019-05-11T03:54:58.223Z,62.40
2019-05-11T03:57:29.313Z,62.60
2019-05-11T04:00:00.639Z,63.10
2019-05-11T04:02:31.759Z,63.30
2019-05-11T04:05:02.799Z,63.50
2019-05-11T04:07:33.715Z,63.50
2019-05-11T04:10:04.635Z,64.40
2019-05-11T04:12:35.797Z,63.80
2019-05-11T04:15:07.603Z,64.10
2019-05-11T04:17:38.468Z,64.00
2019-05-11T04:20:09.734Z,64.20
2019-05-11T04:22:41.022Z,64.20
2019-05-11T04:25:12.374Z,64.20
2019-05-11T04:27:43.667Z,64.30
2019-05-11T04:30:15.010Z,64.30
2019-05-11T04:32:46.500Z,64.40
2019-05-11T04:35:17.755Z,64.30
2019-05-11T04:37:48.813Z,64.80
2019-05-11T04:40:20.232Z,65.40
2019-05-11T04:42:55.714Z,65.50
2019-05-11T04:45:24.462Z,65.40
2019-05-11T04:47:55.942Z,63.40
2019-05-11T04:50:26.956Z,63.30
2019-05-11T04:52:57.994Z,62.00
2019-05-11T04:55:28.983Z,61.40
2019-05-11T04:57:59.932Z,60.90
2019-05-11T05:00:31.088Z,60.30
2019-05-11T05:03:02.309Z,59.30
2019-05-11T05:05:33.822Z,58.30
2019-05-11T05:08:09.668Z,57.10
2019-05-11T05:10:37.498Z,55.60
2019-05-11T05:13:10.869Z,54.20
2019-05-11T05:15:41.662Z,53.60
2019-05-11T05:18:12.738Z,52.00
2019-05-11T05:20:44.109Z,51.80
2019-05-11T05:23:15.080Z,51.10
2019-05-11T05:25:46.149Z,50.50
2019-05-11T05:28:17.063Z,49.50
2019-05-11T05:30:48.007Z,48.40
2019-05-11T05:33:19.247Z,48.10
2019-05-11T05:35:50.626Z,47.30
2019-05-11T05:38:21.628Z,46.70
2019-05-11T05:40:52.755Z,45.30
2019-05-11T05:43:28.140Z,44.00
2019-05-11T05:45:56.295Z,43.90
2019-05-11T05:48:27.344Z,43.70
2019-05-11T05:50:58.741Z,43.70
2019-05-11T05:53:30.227Z,43.50
2019-05-11T05:56:01.411Z,43.60
2019-05-11T05:58:32.366Z,43.10
2019-05-11T06:01:03.659Z,42.30
2019-05-11T06:03:34.726Z,41.10
2019-05-11T06:06:05.711Z,41.50
2019-05-11T06:08:36.751Z,41.10
2019-05-11T06:11:07.885Z,40.80
2019-05-11T06:13:44.978Z,40.40
2019-05-11T06:16:11.855Z,40.50
2019-05-11T06:18:42.839Z,40.10
2019-05-11T06:21:14.089Z,39.70
2019-05-11T06:23:45.359Z,39.30
2019-05-11T06:26:16.415Z,39.10
2019-05-11T06:28:47.615Z,38.50
2019-05-11T06:31:18.995Z,38.20
2019-05-11T06:33:49.964Z,37.50
2019-05-11T06:36:21.434Z,37.60
2019-05-11T06:38:52.719Z,37.40
2019-05-11T06:41:23.631Z,37.00
2019-05-11T06:44:01.908Z,37.10
2019-05-11T06:46:27.888Z,36.80
2019-05-11T06:48:59.638Z,36.60
2019-05-11T06:51:30.851Z,36.20
2019-05-11T06:54:02.025Z,36.20
2019-05-11T06:56:33.354Z,36.00
2019-05-11T06:59:04.874Z,35.80
2019-05-11T07:01:36.165Z,35.40
2019-05-11T07:04:07.739Z,35.50
2019-05-11T07:06:39.268Z,35.20
2019-05-11T07:09:10.454Z,34.90
2019-05-11T07:11:41.807Z,34.30
2019-05-11T07:14:20.493Z,34.10
2019-05-11T07:16:45.576Z,33.80
2019-05-11T07:19:16.707Z,33.30
2019-05-11T07:21:47.998Z,33.20
2019-05-11T07:24:19.347Z,32.90
2019-05-11T07:26:50.775Z,31.90
2019-05-11T07:29:21.942Z,31.50
2019-05-11T07:31:53.187Z,31.30
2019-05-11T07:34:24.540Z,31.10
2019-05-11T07:36:57.681Z,31.00
2019-05-11T07:39:28.955Z,31.30
2019-05-11T07:42:00.750Z,31.20
2019-05-11T07:44:38.295Z,30.50
2019-05-11T07:47:05.175Z,30.30
2019-05-11T07:49:38.262Z,30.00
2019-05-11T07:52:08.750Z,30.10
2019-05-11T07:54:40.755Z,30.40
2019-05-11T07:57:12.526Z,30.90
2019-05-11T07:59:43.602Z,31.10
2019-05-11T08:02:14.971Z,30.90
2019-05-11T08:04:48.005Z,31.20
2019-05-11T08:07:18.280Z,30.80
2019-05-11T08:09:49.590Z,30.60
2019-05-11T08:12:20.959Z,30.80
2019-05-11T08:15:01.024Z,30.40
2019-05-11T08:17:24.799Z,30.00
2019-05-11T08:19:57.925Z,30.30
2019-05-11T08:22:28.632Z,30.00
2019-05-11T08:24:59.507Z,30.00
2019-05-11T08:27:30.667Z,29.60
2019-05-11T08:30:01.967Z,29.50
2019-05-11T08:32:33.451Z,29.50
2019-05-11T08:35:04.607Z,28.80
2019-05-11T08:37:38.548Z,29.00
2019-05-11T08:40:09.043Z,28.60
2019-05-11T08:42:40.072Z,28.90
2019-05-11T08:45:20.209Z,28.80
2019-05-11T08:47:44.191Z,28.90
2019-05-11T08:50:18.514Z,28.90
2019-05-11T08:52:49.258Z,28.50
2019-05-11T08:55:20.381Z,28.40
2019-05-11T08:57:51.389Z,28.50
2019-05-11T09:00:22.367Z,27.40
2019-05-11T09:02:53.547Z,27.40
2019-05-11T09:05:24.606Z,27.10
2019-05-11T09:07:57.618Z,26.50
2019-05-11T09:10:28.379Z,26.50
2019-05-11T09:13:00.071Z,26.50
2019-05-11T09:15:36.826Z,26.40
2019-05-11T09:18:04.585Z,26.40
2019-05-11T09:20:37.761Z,26.70
2019-05-11T09:23:08.360Z,27.10
2019-05-11T09:25:39.794Z,26.30
2019-05-11T09:28:10.962Z,26.50
2019-05-11T09:30:42.159Z,25.80
2019-05-11T09:33:13.326Z,24.70
2019-05-11T09:35:50.002Z,26.00
2019-05-11T09:38:18.575Z,26.20
2019-05-11T09:40:49.626Z,27.00
2019-05-11T09:43:20.591Z,27.10
2019-05-11T09:45:52.145Z,26.90
2019-05-11T09:48:23.282Z,27.00
2019-05-11T09:50:54.539Z,26.60
2019-05-11T09:53:28.171Z,26.80
2019-05-11T09:55:58.833Z,26.30
2019-05-11T09:58:29.617Z,26.30
2019-05-11T10:01:00.386Z,26.40
2019-05-11T10:03:31.131Z,26.30
2019-05-11T10:06:02.359Z,26.70
2019-05-11T10:08:33.359Z,26.70
2019-05-11T10:11:04.663Z,26.80
2019-05-11T10:13:38.259Z,26.60
2019-05-11T10:16:10.663Z,25.90
2019-05-11T10:18:41.353Z,26.00
2019-05-11T10:21:12.167Z,25.70
2019-05-11T10:23:43.518Z,25.30
2019-05-11T10:26:14.642Z,25.40
2019-05-11T10:28:48.205Z,24.60
2019-05-11T10:31:19.353Z,24.20
2019-05-11T10:33:52.123Z,24.20
2019-05-11T10:36:23.226Z,24.20
2019-05-11T10:38:54.371Z,24.10
2019-05-11T10:41:25.610Z,23.80
2019-05-11T10:43:58.035Z,24.00
2019-05-11T10:46:29.543Z,24.80
2019-05-11T10:49:00.891Z,25.20
2019-05-11T10:51:32.420Z,25.20
2019-05-11T10:54:03.747Z,25.40
2019-05-11T10:56:35.003Z,24.80
2019-05-11T10:59:07.938Z,24.60
2019-05-11T11:01:38.895Z,24.90
2019-05-11T11:04:10.027Z,24.00
2019-05-11T11:06:41.263Z,23.40
2019-05-11T11:09:12.351Z,23.00
2019-05-11T11:11:43.495Z,23.10
2019-05-11T11:14:18.093Z,23.10
2019-05-11T11:16:49.602Z,24.10
2019-05-11T11:19:20.755Z,24.40
2019-05-11T11:21:51.871Z,23.60
2019-05-11T11:24:23.250Z,23.50
2019-05-11T11:26:55.023Z,23.00
2019-05-11T11:29:28.560Z,23.20
2019-05-11T11:31:58.868Z,23.50
2019-05-11T11:34:29.985Z,23.10
2019-05-11T11:37:01.203Z,23.40
2019-05-11T11:39:32.127Z,23.80
2019-05-11T11:42:03.246Z,24.00
2019-05-11T11:44:34.410Z,23.30
2019-05-11T11:47:05.770Z,22.40
2019-05-11T11:49:38.356Z,22.70
2019-05-11T11:52:09.631Z,23.10
2019-05-11T11:54:40.947Z,23.10
2019-05-11T11:57:12.218Z,23.00
2019-05-11T11:59:43.672Z,23.30
2019-05-11T12:02:14.827Z,23.30
2019-05-11T12:04:48.567Z,23.30
2019-05-11T12:07:20.237Z,23.50
2019-05-11T12:09:51.715Z,23.40
2019-05-11T12:12:23.541Z,23.30
2019-05-11T12:14:55.011Z,23.00
2019-05-11T12:17:28.394Z,23.10
2019-05-11T12:19:58.970Z,23.50
2019-05-11T12:22:30.536Z,23.10
2019-05-11T12:25:02.731Z,22.80
2019-05-11T12:27:35.331Z,22.50
2019-05-11T12:30:08.983Z,22.80
2019-05-11T12:32:44.627Z,22.70
2019-05-11T12:35:17.841Z,22.70
2019-05-11T12:37:49.290Z,22.80
2019-05-11T12:40:20.607Z,23.00
2019-05-11T12:42:51.551Z,23.60
2019-05-11T12:45:23.819Z,23.20
2019-05-11T12:47:54.988Z,22.80
2019-05-11T12:50:28.416Z,23.10
2019-05-11T12:52:59.011Z,22.60
2019-05-11T12:55:30.802Z,22.50
2019-05-11T12:58:02.707Z,21.40
2019-05-11T13:00:34.015Z,21.20
2019-05-11T13:03:05.359Z,21.50
2019-05-11T13:05:37.759Z,22.70
2019-05-11T13:08:08.985Z,22.70
2019-05-11T13:10:40.542Z,23.10
2019-05-11T13:13:11.878Z,22.40
2019-05-11T13:15:43.034Z,22.70
2019-05-11T13:18:14.163Z,23.10
2019-05-11T13:20:45.343Z,23.90
2019-05-11T13:23:18.555Z,24.80
2019-05-11T13:25:49.516Z,25.10
2019-05-11T13:28:21.227Z,25.60
2019-05-11T13:30:52.279Z,26.00
2019-05-11T13:33:23.422Z,26.10
2019-05-11T13:35:55.081Z,26.90
2019-05-11T13:38:28.236Z,27.40
2019-05-11T13:41:00.091Z,27.10
2019-05-11T13:43:31.135Z,26.80
2019-05-11T13:46:02.221Z,26.90
2019-05-11T13:48:33.403Z,26.50
2019-05-11T13:51:05.122Z,26.40
2019-05-11T13:53:37.625Z,26.40
2019-05-11T13:56:08.627Z,26.50
2019-05-11T13:58:39.463Z,25.90
2019-05-11T14:01:11.023Z,25.50
2019-05-11T14:03:43.112Z,25.50
2019-05-11T14:06:14.288Z,25.80
2019-05-11T14:08:45.279Z,26.10
2019-05-11T14:11:18.258Z,26.70
2019-05-11T14:13:50.123Z,27.30
2019-05-11T14:16:21.327Z,27.30
2019-05-11T14:18:52.531Z,27.60
2019-05-11T14:21:23.511Z,28.00
2019-05-11T14:23:54.670Z,28.60
2019-05-11T14:26:28.026Z,28.90
2019-05-11T14:29:00.211Z,29.10
2019-05-11T14:31:31.387Z,29.20
2019-05-11T14:34:03.411Z,29.20
2019-05-11T14:36:38.518Z,29.20
2019-05-11T14:39:09.771Z,29.30
2019-05-11T14:41:40.915Z,29.60
2019-05-11T14:44:14.039Z,29.80
2019-05-11T14:46:47.575Z,30.30
2019-05-11T14:49:18.539Z,30.70
2019-05-11T14:51:49.807Z,30.90
2019-05-11T14:54:21.287Z,31.30
2019-05-11T14:56:52.291Z,31.70
2019-05-11T14:59:23.386Z,31.70
2019-05-11T15:01:55.548Z,32.20
2019-05-11T15:04:28.647Z,32.70
2019-05-11T15:06:59.655Z,33.00
2019-05-11T15:09:31.439Z,33.60
2019-05-11T15:12:03.219Z,35.40
2019-05-11T15:14:34.075Z,35.20
2019-05-11T15:17:05.079Z,35.20
2019-05-11T15:19:38.276Z,36.00
2019-05-11T15:22:09.326Z,36.80
2019-05-11T15:24:41.155Z,37.70
2019-05-11T15:27:12.204Z,38.80
2019-05-11T15:29:43.203Z,40.30
2019-05-11T15:32:14.179Z,41.00
2019-05-11T15:34:45.965Z,41.90
2019-05-11T15:37:17.839Z,42.40
2019-05-11T15:39:49.826Z,43.60
2019-05-11T15:42:20.638Z,44.00
2019-05-11T15:44:51.947Z,44.00
2019-05-11T15:47:23.940Z,44.80
2019-05-11T15:49:55.616Z,45.80
2019-05-11T15:52:27.767Z,45.90
2019-05-11T15:54:59.547Z,46.90
2019-05-11T15:57:31.323Z,47.60
2019-05-11T16:00:02.607Z,48.30
2019-05-11T16:02:34.055Z,49.60
2019-05-11T16:05:05.828Z,50.10
2019-05-11T16:07:38.384Z,50.70
2019-05-11T16:10:12.448Z,50.30
2019-05-11T16:12:43.883Z,50.30
2019-05-11T16:15:14.919Z,50.30
2019-05-11T16:17:48.419Z,50.10
2019-05-11T16:20:19.071Z,50.10
2019-05-11T16:22:50.659Z,49.90
2019-05-11T16:25:21.880Z,49.70
2019-05-11T16:27:53.129Z,49.60
2019-05-11T16:30:24.231Z,50.20
2019-05-11T16:32:57.957Z,49.70
2019-05-11T16:35:28.842Z,49.10
2019-05-11T16:38:00.151Z,49.60
2019-05-11T16:40:31.540Z,50.70
2019-05-11T16:43:03.263Z,50.10
2019-05-11T16:45:35.043Z,50.10
2019-05-11T16:48:07.994Z,50.20
2019-05-11T16:50:40.064Z,49.60
2019-05-11T16:53:11.523Z,49.40
2019-05-11T16:55:43.111Z,50.30
2019-05-11T16:58:14.075Z,50.00
2019-05-11T17:00:48.756Z,50.10
2019-05-11T17:03:18.827Z,50.90
2019-05-11T17:05:50.647Z,51.30
2019-05-11T17:08:21.779Z,51.10
2019-05-11T17:10:59.583Z,51.10
2019-05-11T17:13:31.085Z,51.10
2019-05-11T17:16:02.135Z,51.20
2019-05-11T17:18:33.711Z,51.10
2019-05-11T17:21:07.621Z,51.30
2019-05-11T17:23:38.526Z,51.70
2019-05-11T17:26:10.231Z,51.90
2019-05-11T17:28:41.863Z,52.00
2019-05-11T17:31:13.195Z,52.20
2019-05-11T17:33:47.581Z,52.40
2019-05-11T17:36:18.809Z,52.50
2019-05-11T17:38:49.923Z,52.70
2019-05-11T17:41:21.135Z,53.00
2019-05-11T17:43:52.199Z,53.20
2019-05-11T17:46:23.307Z,53.30
2019-05-11T17:48:54.677Z,53.30
2019-05-11T17:51:28.413Z,53.60
2019-05-11T17:53:59.709Z,53.60
2019-05-11T17:56:32.295Z,53.90
2019-05-11T17:59:03.368Z,54.00
2019-05-11T18:01:34.439Z,54.20
2019-05-11T18:04:08.070Z,54.20
2019-05-11T18:06:39.456Z,55.10
2019-05-11T18:09:10.971Z,54.80
2019-05-11T18:11:42.239Z,55.20
2019-05-11T18:14:13.219Z,55.20
2019-05-11T18:16:44.299Z,55.40
2019-05-11T18:19:15.575Z,55.40
2019-05-11T18:21:48.740Z,55.50
2019-05-11T18:24:21.095Z,55.60
2019-05-11T18:26:52.103Z,55.60
2019-05-11T18:29:23.590Z,55.60
2019-05-11T18:31:54.710Z,55.60
2019-05-11T18:34:26.047Z,55.60
2019-05-11T18:36:57.826Z,55.50
2019-05-11T18:39:29.469Z,55.40
2019-05-11T18:42:00.643Z,55.50
2019-05-11T18:44:32.038Z,55.40
2019-05-11T18:47:03.231Z,55.60
2019-05-11T18:49:34.579Z,55.80
2019-05-11T18:52:08.067Z,55.60
2019-05-11T18:54:38.496Z,55.70
2019-05-11T18:57:09.399Z,55.90
2019-05-11T18:59:40.391Z,56.00
2019-05-11T19:02:11.271Z,56.20
2019-05-11T19:04:42.155Z,56.30
2019-05-11T19:07:17.036Z,56.20
2019-05-11T19:09:48.402Z,56.30
2019-05-11T19:12:19.196Z,56.50
2019-05-11T19:14:51.231Z,56.80
2019-05-11T19:17:22.042Z,56.80
2019-05-11T19:19:53.548Z,57.00
2019-05-11T19:22:24.802Z,57.30
2019-05-11T19:24:58.264Z,57.70
2019-05-11T19:27:29.591Z,58.10
2019-05-11T19:30:01.099Z,58.60
2019-05-11T19:32:32.894Z,58.70
2019-05-11T19:35:04.555Z,59.10
2019-05-11T19:37:35.619Z,59.30
2019-05-11T19:40:09.046Z,59.30
2019-05-11T19:42:59.092Z,59.50
2019-05-11T19:45:30.782Z,59.50
2019-05-11T19:48:01.943Z,59.60
2019-05-11T19:50:33.147Z,59.80
2019-05-11T19:53:08.206Z,59.80
2019-05-11T19:55:39.167Z,59.90
2019-05-11T19:58:10.259Z,59.80
2019-05-11T20:00:41.543Z,59.80
2019-05-11T20:03:13.543Z,59.70
2019-05-11T20:05:45.579Z,59.90
2019-05-11T20:08:18.432Z,60.20
2019-05-11T20:10:49.311Z,60.40
2019-05-11T20:13:20.623Z,60.20
2019-05-11T20:15:51.792Z,60.10
2019-05-11T20:18:22.893Z,60.00
2019-05-11T20:20:54.171Z,59.90
2019-05-11T20:23:25.690Z,60.10
2019-05-11T20:25:58.246Z,60.40
2019-05-11T20:28:29.611Z,60.40
2019-05-11T20:31:00.627Z,61.00
2019-05-11T20:33:31.714Z,61.00
2019-05-11T20:36:03.419Z,61.10
2019-05-11T20:38:35.261Z,61.40
2019-05-11T20:41:08.372Z,61.40
2019-05-11T20:43:39.850Z,61.50
2019-05-11T20:46:11.046Z,61.50
2019-05-11T20:48:42.219Z,61.60
2019-05-11T20:51:13.122Z,61.70
2019-05-11T20:53:46.902Z,61.80
2019-05-11T20:56:17.800Z,61.90
2019-05-11T20:58:59.130Z,62.00
2019-05-11T21:01:29.771Z,62.00
2019-05-11T21:04:00.930Z,62.00
2019-05-11T21:06:32.014Z,62.00
2019-05-11T21:09:03.222Z,62.00
2019-05-11T21:11:34.871Z,62.10
2019-05-11T21:14:08.082Z,62.10
2019-05-11T21:16:39.499Z,62.10
2019-05-11T21:19:10.655Z,62.30
2019-05-11T21:21:49.835Z,62.50
2019-05-11T21:24:14.679Z,62.40
2019-05-11T21:26:47.885Z,62.30
2019-05-11T21:29:18.815Z,62.60
2019-05-11T21:31:51.164Z,62.70
2019-05-11T21:34:22.112Z,62.60
2019-05-11T21:36:53.298Z,63.40
2019-05-11T21:39:24.496Z,62.70
2019-05-11T21:41:55.446Z,62.80
2019-05-11T21:44:27.826Z,62.80
2019-05-11T21:46:58.872Z,62.80
2019-05-11T21:49:29.867Z,62.80
2019-05-11T21:52:04.663Z,62.60
2019-05-11T21:54:38.198Z,62.40
2019-05-11T21:57:09.024Z,62.60
2019-05-11T21:59:39.767Z,62.50
2019-05-11T22:02:11.260Z,62.40
2019-05-11T22:04:43.418Z,62.40
2019-05-11T22:07:14.742Z,62.30
2019-05-11T22:09:45.892Z,62.30
2019-05-11T22:12:18.743Z,62.30
2019-05-11T22:14:49.830Z,62.30
2019-05-11T22:17:20.939Z,62.20
2019-05-11T22:19:52.149Z,62.20
2019-05-11T22:22:25.433Z,62.20
2019-05-11T22:24:58.426Z,62.30
2019-05-11T22:27:30.559Z,62.40
2019-05-11T22:30:01.784Z,62.20
2019-05-11T22:32:33.170Z,62.20
2019-05-11T22:35:04.433Z,62.40
2019-05-11T22:37:35.455Z,62.50
2019-05-11T22:40:08.287Z,62.60
2019-05-11T22:42:39.998Z,62.70
2019-05-11T22:45:11.463Z,63.10
2019-05-11T22:47:42.575Z,62.40
2019-05-11T22:50:14.071Z,62.20
2019-05-11T22:52:45.411Z,62.20
2019-05-11T22:55:18.736Z,62.00
2019-05-11T22:57:49.975Z,61.90
2019-05-11T23:00:38.133Z,61.80
2019-05-11T23:03:10.931Z,61.70
2019-05-11T23:05:42.733Z,61.50
2019-05-11T23:08:13.860Z,61.50
2019-05-11T23:10:45.024Z,61.50
2019-05-11T23:13:18.531Z,61.30
2019-05-11T23:15:48.930Z,61.20
2019-05-11T23:18:19.899Z,61.10
2019-05-11T23:20:51.855Z,61.00
2019-05-11T23:23:23.007Z,61.50
2019-05-11T23:25:54.106Z,61.60
2019-05-11T23:28:25.543Z,61.10
2019-05-11T23:30:58.280Z,60.50
2019-05-11T23:33:29.343Z,60.30
2019-05-11T23:36:00.634Z,60.30
2019-05-11T23:38:31.478Z,60.10
2019-05-11T23:41:02.504Z,60.00
2019-05-11T23:43:33.524Z,60.10
2019-05-11T23:46:04.307Z,60.00
2019-05-11T23:48:35.310Z,60.00
2019-05-11T23:51:08.585Z,59.90
2019-05-11T23:53:38.989Z,60.10
2019-05-11T23:56:10.018Z,60.00
2019-05-11T23:58:41.999Z,59.90
